createdAt,value
2023-04-12T00:01:35.094Z,94797.41
2023-04-12T00:04:05.730Z,94796.94
2023-04-12T00:06:33.797Z,94786.50
2023-04-12T00:09:04.484Z,94785.69
2023-04-12T00:11:33.114Z,94778.09
2023-04-12T00:14:01.062Z,94785.78
2023-04-12T00:16:29.191Z,94783.78
2023-04-12T00:18:57.471Z,94777.34
2023-04-12T00:21:28.877Z,94759.69
2023-04-12T00:23:57.434Z,94767.97
2023-04-12T00:26:26.844Z,94765.59
2023-04-12T00:28:55.842Z,94764.94
2023-04-12T00:31:23.822Z,94758.84
2023-04-12T00:33:51.932Z,94751.47
2023-04-12T00:36:20.036Z,94750.75
2023-04-12T00:38:48.105Z,94756.53
2023-04-12T00:41:16.494Z,94754.38
2023-04-12T00:43:45.794Z,94743.22
2023-04-12T00:46:13.776Z,94750.06
2023-04-12T00:48:41.840Z,94741.84
2023-04-12T00:51:09.976Z,94734.63
2023-04-12T00:53:40.933Z,94724.72
2023-04-12T00:56:11.972Z,94720.44
2023-04-12T00:58:39.960Z,94713.63
2023-04-12T01:01:10.723Z,94711.88
2023-04-12T01:03:43.493Z,94708.72
2023-04-12T01:06:17.360Z,94696.69
2023-04-12T01:08:55.874Z,94703.66
2023-04-12T01:11:33.776Z,94696.53
2023-04-12T01:14:09.522Z,94695.41
2023-04-12T01:16:46.237Z,94684.31
2023-04-12T01:19:38.397Z,94686.06
2023-04-12T01:22:18.210Z,94664.53
2023-04-12T01:24:57.585Z,94659.44
2023-04-12T01:27:38.332Z,94657.38
2023-04-12T01:30:09.349Z,94646.72
2023-04-12T01:32:40.124Z,94650.56
2023-04-12T01:35:10.960Z,94649.63
2023-04-12T01:37:39.056Z,94638.69
2023-04-12T01:40:09.515Z,94638.69
2023-04-12T01:42:39.742Z,94633.47
2023-04-12T01:45:08.957Z,94632.91
2023-04-12T01:47:37.250Z,94625.84
2023-04-12T01:50:16.149Z,94604.94
2023-04-12T01:52:50.728Z,94604.16
2023-04-12T01:55:22.789Z,94591.94
2023-04-12T01:57:54.437Z,94577.84
2023-04-12T02:00:23.649Z,94558.59
2023-04-12T02:02:53.038Z,94545.03
2023-04-12T02:05:22.341Z,94550.75
2023-04-12T02:07:54.108Z,94554.41
2023-04-12T02:10:30.000Z,94544.91
2023-04-12T02:13:01.719Z,94529.22
2023-04-12T02:15:31.852Z,94538.38
2023-04-12T02:18:01.698Z,94532.38
2023-04-12T02:20:30.706Z,94530.78
2023-04-12T02:23:00.333Z,94532.84
2023-04-12T02:25:28.382Z,94527.63
2023-04-12T02:27:56.444Z,94530.28
2023-04-12T02:30:26.810Z,94526.66
2023-04-12T02:32:56.303Z,94520.16
2023-04-12T02:35:28.640Z,94512.06
2023-04-12T02:38:03.701Z,94505.28
2023-04-12T02:40:31.764Z,94510.53
2023-04-12T02:42:59.916Z,94512.66
2023-04-12T02:45:29.664Z,94514.16
2023-04-12T02:47:59.205Z,94523.97
2023-04-12T02:50:30.356Z,94512.28
2023-04-12T02:53:10.212Z,94537.19
2023-04-12T02:55:40.430Z,94537.03
2023-04-12T02:58:09.956Z,94531.81
2023-04-12T03:00:46.766Z,94529.59
2023-04-12T03:03:18.048Z,94513.78
2023-04-12T03:05:53.629Z,94505.00
2023-04-12T03:08:21.975Z,94497.75
2023-04-12T03:10:56.441Z,94501.47
2023-04-12T03:13:25.995Z,94496.72
2023-04-12T03:16:00.237Z,94494.28
2023-04-12T03:18:36.546Z,94493.75
2023-04-12T03:21:05.664Z,94486.16
2023-04-12T03:23:33.747Z,94485.19
2023-04-12T03:26:20.400Z,94491.97
2023-04-12T03:29:04.964Z,94487.28
2023-04-12T03:31:37.339Z,94489.13
2023-04-12T03:34:09.029Z,94490.41
2023-04-12T03:36:41.689Z,94484.69
2023-04-12T03:39:18.981Z,94480.56
2023-04-12T03:41:52.961Z,94467.84
2023-04-12T03:44:26.186Z,94466.81
2023-04-12T03:46:57.787Z,94484.38
2023-04-12T03:49:28.212Z,94486.78
2023-04-12T03:51:57.232Z,94481.38
2023-04-12T03:54:26.196Z,94490.63
2023-04-12T03:57:04.064Z,94509.22
2023-04-12T03:59:39.143Z,94510.63
2023-04-12T04:02:09.224Z,94515.41
2023-04-12T04:04:43.452Z,94513.19
2023-04-12T04:07:14.340Z,94509.22
2023-04-12T04:09:44.972Z,94501.13
2023-04-12T04:12:13.526Z,94494.78
2023-04-12T04:14:46.171Z,94492.22
2023-04-12T04:17:24.365Z,94473.19
2023-04-12T04:19:52.882Z,94474.09
2023-04-12T04:22:21.667Z,94468.41
2023-04-12T04:24:52.489Z,94469.50
2023-04-12T04:27:22.300Z,94444.94
2023-04-12T04:29:58.200Z,94437.16
2023-04-12T04:32:27.625Z,94431.94
2023-04-12T04:34:59.913Z,94424.56
2023-04-12T04:37:35.996Z,94421.66
2023-04-12T04:40:07.934Z,94428.16
2023-04-12T04:42:39.851Z,94429.13
2023-04-12T04:45:13.786Z,94436.72
2023-04-12T04:47:46.533Z,94438.97
2023-04-12T04:50:14.502Z,94451.84
2023-04-12T04:52:42.507Z,94454.44
2023-04-12T04:55:14.294Z,94443.16
2023-04-12T04:57:46.053Z,94459.25
2023-04-12T05:00:16.438Z,94449.47
2023-04-12T05:02:49.537Z,94447.31
2023-04-12T05:05:26.013Z,94444.00
2023-04-12T05:08:00.642Z,94443.78
2023-04-12T05:10:31.853Z,94449.91
2023-04-12T05:13:03.372Z,94450.41
2023-04-12T05:15:32.404Z,94455.63
2023-04-12T05:18:02.932Z,94452.47
2023-04-12T05:20:31.917Z,94458.56
2023-04-12T05:23:01.202Z,94467.19
2023-04-12T05:25:29.211Z,94479.22
2023-04-12T05:28:04.608Z,94472.41
2023-04-12T05:30:32.575Z,94470.81
2023-04-12T05:33:02.663Z,94482.84
2023-04-12T05:35:31.458Z,94485.53
2023-04-12T05:38:00.913Z,94479.22
2023-04-12T05:40:28.978Z,94476.06
2023-04-12T05:42:56.950Z,94468.28
2023-04-12T05:45:26.412Z,94464.13
2023-04-12T05:47:54.877Z,94466.81
2023-04-12T05:50:25.093Z,94472.06
2023-04-12T05:52:53.834Z,94480.44
2023-04-12T05:55:27.182Z,94472.66
2023-04-12T05:57:58.885Z,94472.66
2023-04-12T06:00:29.006Z,94474.84
2023-04-12T06:02:58.667Z,94461.22
2023-04-12T06:05:28.371Z,94467.97
2023-04-12T06:07:56.432Z,94463.31
2023-04-12T06:10:24.363Z,94453.84
2023-04-12T06:12:54.620Z,94450.16
2023-04-12T06:15:22.711Z,94451.25
2023-04-12T06:17:55.595Z,94443.97
2023-04-12T06:20:23.573Z,94450.78
2023-04-12T06:22:53.233Z,94456.00
2023-04-12T06:25:23.044Z,94460.75
2023-04-12T06:27:51.649Z,94459.03
2023-04-12T06:30:21.101Z,94463.53
2023-04-12T06:32:52.549Z,94462.53
2023-04-12T06:35:21.664Z,94467.13
2023-04-12T06:37:49.879Z,94468.31
2023-04-12T06:40:19.678Z,94474.47
2023-04-12T06:42:47.656Z,94474.09
2023-04-12T06:45:22.852Z,94477.16
2023-04-12T06:47:50.939Z,94478.22
2023-04-12T06:50:19.593Z,94475.81
2023-04-12T06:52:48.804Z,94469.75
2023-04-12T06:55:17.099Z,94454.13
2023-04-12T06:57:46.542Z,94455.22
2023-04-12T07:00:15.614Z,94454.25
2023-04-12T07:02:43.866Z,94451.13
2023-04-12T07:05:12.016Z,94445.38
2023-04-12T07:07:39.933Z,94437.78
2023-04-12T07:10:09.108Z,94427.03
2023-04-12T07:12:37.082Z,94420.78
2023-04-12T07:15:07.335Z,94403.03
2023-04-12T07:17:35.389Z,94394.34
2023-04-12T07:20:03.600Z,94399.38
2023-04-12T07:22:31.538Z,94402.50
2023-04-12T07:24:59.514Z,94399.16
2023-04-12T07:27:27.486Z,94397.84
2023-04-12T07:29:55.551Z,94412.28
2023-04-12T07:32:24.921Z,94418.03
2023-04-12T07:34:53.220Z,94413.06
2023-04-12T07:37:21.317Z,94426.34
2023-04-12T07:39:49.339Z,94422.03
2023-04-12T07:42:17.727Z,94409.16
2023-04-12T07:44:45.664Z,94416.38
2023-04-12T07:47:13.566Z,94418.59
2023-04-12T07:49:42.880Z,94414.34
2023-04-12T07:52:10.821Z,94401.59
2023-04-12T07:54:38.878Z,94408.97
2023-04-12T07:57:08.022Z,94415.28
2023-04-12T07:59:36.718Z,94419.56
2023-04-12T08:02:06.260Z,94414.66
2023-04-12T08:04:34.400Z,94413.44
2023-04-12T08:07:03.667Z,94420.34
2023-04-12T08:09:31.594Z,94418.53
2023-04-12T08:11:59.516Z,94425.09
2023-04-12T08:14:27.600Z,94426.16
2023-04-12T08:16:55.494Z,94424.06
2023-04-12T08:19:23.423Z,94420.66
2023-04-12T08:21:51.337Z,94417.28
2023-04-12T08:24:20.971Z,94411.34
2023-04-12T08:26:48.866Z,94395.88
2023-04-12T08:29:16.754Z,94403.22
2023-04-12T08:31:44.998Z,94407.94
2023-04-12T08:34:13.024Z,94409.53
2023-04-12T08:36:41.171Z,94422.63
2023-04-12T08:39:09.557Z,94420.06
2023-04-12T08:41:40.190Z,94415.88
2023-04-12T08:44:08.488Z,94413.81
2023-04-12T08:46:37.505Z,94403.31
2023-04-12T08:49:05.606Z,94417.00
2023-04-12T08:51:36.255Z,94401.25
2023-04-12T08:54:04.311Z,94400.75
2023-04-12T08:56:33.304Z,94402.84
2023-04-12T08:59:03.598Z,94404.16
2023-04-12T09:01:31.585Z,94406.00
2023-04-12T09:03:59.907Z,94390.81
2023-04-12T09:06:28.269Z,94385.56
2023-04-12T09:08:58.029Z,94387.66
2023-04-12T09:11:27.298Z,94395.03
2023-04-12T09:13:56.521Z,94386.66
2023-04-12T09:16:40.306Z,94392.44
2023-04-12T09:19:09.378Z,94389.03
2023-04-12T09:21:38.805Z,94385.63
2023-04-12T09:24:12.358Z,94376.72
2023-04-12T09:26:42.316Z,94379.34
2023-04-12T09:29:24.294Z,94372.00
2023-04-12T09:32:04.071Z,94369.91
2023-04-12T09:34:33.426Z,94363.84
2023-04-12T09:37:01.418Z,94357.84
2023-04-12T09:39:33.283Z,94357.06
2023-04-12T09:42:24.884Z,94361.50
2023-04-12T09:44:58.407Z,94358.91
2023-04-12T09:47:40.022Z,94345.75
2023-04-12T09:50:09.971Z,94351.00
2023-04-12T09:52:38.716Z,94346.78
2023-04-12T09:55:10.712Z,94342.56
2023-04-12T09:57:40.389Z,94341.00
2023-04-12T10:00:17.221Z,94336.78
2023-04-12T10:02:51.243Z,94342.56
2023-04-12T10:05:21.625Z,94326.78
2023-04-12T10:07:50.944Z,94327.28
2023-04-12T10:10:20.698Z,94325.16
2023-04-12T10:12:50.078Z,94330.66
2023-04-12T10:15:20.811Z,94324.06
2023-04-12T10:17:57.558Z,94318.03
2023-04-12T10:20:28.983Z,94306.97
2023-04-12T10:22:59.706Z,94307.75
2023-04-12T10:25:31.794Z,94305.13
2023-04-12T10:28:14.941Z,94311.44
2023-04-12T10:30:43.011Z,94309.34
2023-04-12T10:33:17.947Z,94303.53
2023-04-12T10:35:55.462Z,94297.75
2023-04-12T10:38:26.901Z,94293.00
2023-04-12T10:41:18.505Z,94292.69
2023-04-12T10:43:47.551Z,94281.63
2023-04-12T10:46:49.419Z,94272.66
2023-04-12T10:49:19.251Z,94265.56
2023-04-12T10:52:13.784Z,94261.88
2023-04-12T10:54:41.906Z,94252.38
2023-04-12T10:57:43.085Z,94256.53
2023-04-12T11:00:12.113Z,94262.28
2023-04-12T11:03:12.643Z,94257.53
2023-04-12T11:06:16.256Z,94249.03
2023-04-12T11:09:21.881Z,94249.00
2023-04-12T11:11:50.511Z,94244.78
2023-04-12T11:14:19.432Z,94240.81
2023-04-12T11:17:22.601Z,94238.69
2023-04-12T11:20:02.162Z,94237.34
2023-04-12T11:22:33.870Z,94246.84
2023-04-12T11:25:03.471Z,94235.31
2023-04-12T11:27:32.787Z,94226.88
2023-04-12T11:30:02.288Z,94232.16
2023-04-12T11:32:31.887Z,94237.50
2023-04-12T11:35:00.041Z,94226.00
2023-04-12T11:37:33.198Z,94225.22
2023-04-12T11:40:01.140Z,94226.31
2023-04-12T11:42:30.174Z,94223.50
2023-04-12T11:45:03.120Z,94230.56
2023-04-12T11:47:33.158Z,94223.97
2023-04-12T11:50:01.118Z,94219.25
2023-04-12T11:52:30.623Z,94225.06
2023-04-12T11:55:04.790Z,94215.09
2023-04-12T11:57:33.167Z,94212.56
2023-04-12T12:00:05.941Z,94205.97
2023-04-12T12:02:46.438Z,94216.19
2023-04-12T12:05:17.716Z,94211.22
2023-04-12T12:07:46.030Z,94205.19
2023-04-12T12:10:27.582Z,94212.06
2023-04-12T12:13:03.626Z,94208.97
2023-04-12T12:15:32.087Z,94205.81
2023-04-12T12:18:02.232Z,94210.03
2023-04-12T12:20:30.406Z,94206.91
2023-04-12T12:22:58.284Z,94199.25
2023-04-12T12:25:27.690Z,94210.00
2023-04-12T12:27:59.532Z,94202.63
2023-04-12T12:30:27.557Z,94203.50
2023-04-12T12:32:56.369Z,94208.06
2023-04-12T12:35:27.571Z,94203.31
2023-04-12T12:37:59.012Z,94195.53
2023-04-12T12:40:32.822Z,94203.91
2023-04-12T12:43:01.432Z,94217.88
2023-04-12T12:45:31.151Z,94207.34
2023-04-12T12:48:00.558Z,94202.09
2023-04-12T12:50:29.912Z,94197.59
2023-04-12T12:52:58.316Z,94198.59
2023-04-12T12:55:26.597Z,94188.88
2023-04-12T12:58:07.265Z,94183.91
2023-04-12T13:00:36.494Z,94189.72
2023-04-12T13:03:04.847Z,94190.53
2023-04-12T13:05:33.104Z,94204.50
2023-04-12T13:08:01.083Z,94207.69
2023-04-12T13:10:28.993Z,94213.25
2023-04-12T13:12:58.763Z,94215.59
2023-04-12T13:15:26.737Z,94214.59
2023-04-12T13:17:55.297Z,94213.78
2023-04-12T13:20:23.838Z,94188.38
2023-04-12T13:22:52.588Z,94192.00
2023-04-12T13:25:21.185Z,94174.69
2023-04-12T13:27:49.944Z,94181.75
2023-04-12T13:30:20.224Z,94178.84
2023-04-12T13:32:48.317Z,94177.28
2023-04-12T13:35:16.398Z,94176.78
2023-04-12T13:37:44.379Z,94179.44
2023-04-12T13:40:12.595Z,94187.31
2023-04-12T13:42:40.717Z,94203.84
2023-04-12T13:45:11.272Z,94219.03
2023-04-12T13:47:41.344Z,94230.81
2023-04-12T13:50:10.354Z,94230.44
2023-04-12T13:52:38.281Z,94239.03
2023-04-12T13:55:08.626Z,94234.56
2023-04-12T13:57:36.775Z,94219.66
2023-04-12T14:00:05.225Z,94209.72
2023-04-12T14:02:33.436Z,94184.31
2023-04-12T14:05:03.111Z,94186.44
2023-04-12T14:07:31.395Z,94182.06
2023-04-12T14:09:59.306Z,94176.81
2023-04-12T14:12:27.294Z,94172.91
2023-04-12T14:14:55.389Z,94153.25
2023-04-12T14:17:23.505Z,94146.41
2023-04-12T14:19:51.798Z,94141.69
2023-04-12T14:22:21.175Z,94122.84
2023-04-12T14:24:49.153Z,94123.38
2023-04-12T14:27:18.146Z,94114.47
2023-04-12T14:29:46.598Z,94112.88
2023-04-12T14:32:14.585Z,94118.09
2023-04-12T14:34:43.556Z,94130.69
2023-04-12T14:37:11.582Z,94140.34
2023-04-12T14:39:40.919Z,94140.88
2023-04-12T14:42:08.861Z,94138.97
2023-04-12T14:44:36.830Z,94144.63
2023-04-12T14:47:04.754Z,94162.69
2023-04-12T14:49:33.330Z,94177.97
2023-04-12T14:52:02.065Z,94184.53
2023-04-12T14:54:29.997Z,94183.09
2023-04-12T14:57:00.534Z,94182.31
2023-04-12T14:59:28.489Z,94188.59
2023-04-12T15:01:58.722Z,94199.34
2023-04-12T15:04:26.842Z,94193.41
2023-04-12T15:06:54.845Z,94200.69
2023-04-12T15:09:22.732Z,94212.16
2023-04-12T15:11:55.027Z,94213.44
2023-04-12T15:14:25.369Z,94228.63
2023-04-12T15:16:53.571Z,94231.47
2023-04-12T15:19:23.397Z,94221.59
2023-04-12T15:21:52.253Z,94220.13
2023-04-12T15:24:20.919Z,94214.00
2023-04-12T15:26:50.875Z,94206.72
2023-04-12T15:29:19.658Z,94230.88
2023-04-12T15:31:49.067Z,94236.38
2023-04-12T15:34:17.533Z,94240.31
2023-04-12T15:36:45.991Z,94245.56
2023-04-12T15:39:15.139Z,94252.88
2023-04-12T15:41:43.776Z,94246.84
2023-04-12T15:44:13.532Z,94247.63
2023-04-12T15:46:42.461Z,94243.47
2023-04-12T15:49:12.117Z,94250.78
2023-04-12T15:51:40.234Z,94250.78
2023-04-12T15:54:08.113Z,94251.78
2023-04-12T15:56:38.046Z,94262.72
2023-04-12T15:59:06.241Z,94267.34
2023-04-12T16:01:35.810Z,94270.41
2023-04-12T16:04:05.291Z,94266.81
2023-04-12T16:06:38.093Z,94260.59
2023-04-12T16:09:06.807Z,94262.78
2023-04-12T16:11:35.332Z,94274.81
2023-04-12T16:14:03.267Z,94268.56
2023-04-12T16:16:31.298Z,94270.63
2023-04-12T16:19:00.208Z,94275.75
2023-04-12T16:21:30.328Z,94281.22
2023-04-12T16:23:59.664Z,94282.47
2023-04-12T16:26:27.628Z,94278.31
2023-04-12T16:28:55.893Z,94271.50
2023-04-12T16:31:26.153Z,94265.78
2023-04-12T16:33:54.796Z,94271.53
2023-04-12T16:36:23.983Z,94266.34
2023-04-12T16:38:54.584Z,94274.16
2023-04-12T16:41:23.878Z,94268.84
2023-04-12T16:43:53.835Z,94269.94
2023-04-12T16:46:22.411Z,94277.72
2023-04-12T16:48:50.601Z,94266.22
2023-04-12T16:51:18.593Z,94271.09
2023-04-12T16:53:46.500Z,94274.03
2023-04-12T16:56:14.693Z,94265.09
2023-04-12T16:58:45.417Z,94250.41
2023-04-12T17:01:17.337Z,94243.06
2023-04-12T17:03:50.470Z,94240.94
2023-04-12T17:06:20.436Z,94236.72
2023-04-12T17:08:49.237Z,94257.59
2023-04-12T17:11:17.686Z,94250.78
2023-04-12T17:13:54.810Z,94250.81
2023-04-12T17:16:24.830Z,94254.44
2023-04-12T17:18:53.667Z,94243.81
2023-04-12T17:21:24.512Z,94244.16
2023-04-12T17:23:56.105Z,94245.09
2023-04-12T17:26:27.443Z,94265.72
2023-04-12T17:29:12.744Z,94257.34
2023-04-12T17:31:41.121Z,94264.91
2023-04-12T17:34:09.254Z,94264.91
2023-04-12T17:36:38.285Z,94258.13
2023-04-12T17:39:06.210Z,94268.00
2023-04-12T17:41:34.132Z,94268.69
2023-04-12T17:44:03.569Z,94269.75
2023-04-12T17:46:31.911Z,94267.22
2023-04-12T17:49:02.639Z,94273.22
2023-04-12T17:51:31.599Z,94289.88
2023-04-12T17:54:00.530Z,94293.81
2023-04-12T17:56:28.750Z,94277.84
2023-04-12T17:58:57.339Z,94281.50
2023-04-12T18:01:26.856Z,94276.75
2023-04-12T18:03:54.926Z,94285.06
2023-04-12T18:06:23.847Z,94282.38
2023-04-12T18:08:52.722Z,94291.72
2023-04-12T18:11:21.029Z,94295.38
2023-04-12T18:13:48.939Z,94298.53
2023-04-12T18:16:16.907Z,94297.56
2023-04-12T18:18:46.223Z,94290.28
2023-04-12T18:21:14.698Z,94280.31
2023-04-12T18:23:42.759Z,94269.25
2023-04-12T18:26:10.632Z,94286.41
2023-04-12T18:28:39.710Z,94294.78
2023-04-12T18:31:08.859Z,94296.38
2023-04-12T18:33:36.768Z,94293.38
2023-04-12T18:36:06.733Z,94308.03
2023-04-12T18:38:35.636Z,94298.53
2023-04-12T18:41:04.483Z,94312.13
2023-04-12T18:43:32.547Z,94317.34
2023-04-12T18:46:00.969Z,94328.34
2023-04-12T18:48:30.381Z,94337.78
2023-04-12T18:50:59.398Z,94341.94
2023-04-12T18:53:28.650Z,94358.84
2023-04-12T18:55:57.084Z,94365.16
2023-04-12T18:58:25.205Z,94369.00
2023-04-12T19:00:56.100Z,94344.47
2023-04-12T19:03:25.610Z,94325.63
2023-04-12T19:05:55.942Z,94335.00
2023-04-12T19:08:23.962Z,94344.34
2023-04-12T19:10:53.366Z,94341.13
2023-04-12T19:13:21.684Z,94342.63
2023-04-12T19:15:49.647Z,94339.47
2023-04-12T19:18:17.647Z,94337.91
2023-04-12T19:20:46.018Z,94343.66
2023-04-12T19:23:14.861Z,94361.94
2023-04-12T19:25:43.133Z,94371.28
2023-04-12T19:28:12.444Z,94368.75
2023-04-12T19:30:40.464Z,94371.59
2023-04-12T19:33:09.100Z,94380.72
2023-04-12T19:35:37.046Z,94385.88
2023-04-12T19:38:04.969Z,94403.59
2023-04-12T19:40:33.031Z,94413.78
2023-04-12T19:43:01.181Z,94418.13
2023-04-12T19:45:30.645Z,94445.50
2023-04-12T19:47:58.625Z,94481.91
2023-04-12T19:50:26.610Z,94500.22
2023-04-12T19:52:55.298Z,94497.09
2023-04-12T19:55:23.423Z,94508.31
2023-04-12T19:57:51.412Z,94498.81
2023-04-12T20:00:21.026Z,94499.53
2023-04-12T20:02:51.854Z,94499.97
2023-04-12T20:05:21.134Z,94511.50
2023-04-12T20:07:49.848Z,94505.81
2023-04-12T20:10:18.196Z,94515.47
2023-04-12T20:12:46.800Z,94514.66
2023-04-12T20:15:15.032Z,94519.38
2023-04-12T20:17:44.734Z,94511.53
2023-04-12T20:20:15.418Z,94520.28
2023-04-12T20:22:46.105Z,94519.25
2023-04-12T20:25:14.833Z,94524.00
2023-04-12T20:27:44.744Z,94519.88
2023-04-12T20:30:16.931Z,94527.16
2023-04-12T20:32:44.994Z,94517.66
2023-04-12T20:35:15.358Z,94525.41
2023-04-12T20:37:43.526Z,94526.66
2023-04-12T20:40:12.534Z,94525.88
2023-04-12T20:42:42.522Z,94523.34
2023-04-12T20:45:11.614Z,94529.34
2023-04-12T20:47:39.542Z,94532.09
2023-04-12T20:50:08.406Z,94529.03
2023-04-12T20:52:38.163Z,94539.81
2023-04-12T20:55:07.478Z,94536.09
2023-04-12T20:57:35.988Z,94538.31
2023-04-12T21:00:12.609Z,94543.09
2023-04-12T21:02:40.708Z,94548.75
2023-04-12T21:05:09.106Z,94552.59
2023-04-12T21:07:41.248Z,94548.00
2023-04-12T21:10:13.319Z,94539.16
2023-04-12T21:12:42.607Z,94542.78
2023-04-12T21:15:12.526Z,94542.16
2023-04-12T21:17:40.960Z,94548.41
2023-04-12T21:20:13.651Z,94553.00
2023-04-12T21:22:45.082Z,94557.94
2023-04-12T21:25:16.516Z,94542.97
2023-04-12T21:27:46.723Z,94530.28
2023-04-12T21:30:15.753Z,94527.50
2023-04-12T21:32:43.971Z,94541.44
2023-04-12T21:35:12.442Z,94545.38
2023-04-12T21:37:41.049Z,94540.28
2023-04-12T21:40:12.591Z,94543.50
2023-04-12T21:42:41.889Z,94545.34
2023-04-12T21:45:11.043Z,94537.06
2023-04-12T21:47:41.006Z,94546.00
2023-04-12T21:50:10.359Z,94539.53
2023-04-12T21:52:39.010Z,94541.25
2023-04-12T21:55:07.380Z,94537.41
2023-04-12T21:57:36.994Z,94531.06
2023-04-12T22:00:08.792Z,94530.84
2023-04-12T22:02:40.085Z,94536.16
2023-04-12T22:05:08.733Z,94537.06
2023-04-12T22:07:41.158Z,94525.50
2023-04-12T22:10:12.075Z,94528.88
2023-04-12T22:12:42.408Z,94538.19
2023-04-12T22:15:12.242Z,94528.22
2023-04-12T22:17:40.823Z,94529.69
2023-04-12T22:20:11.063Z,94528.56
2023-04-12T22:22:39.126Z,94526.41
2023-04-12T22:25:11.995Z,94529.94
2023-04-12T22:27:42.172Z,94535.06
2023-04-12T22:30:11.576Z,94529.13
2023-04-12T22:32:40.114Z,94535.72
2023-04-12T22:35:09.979Z,94539.34
2023-04-12T22:37:39.063Z,94541.41
2023-04-12T22:40:11.906Z,94530.28
2023-04-12T22:42:46.559Z,94524.84
2023-04-12T22:45:15.867Z,94536.38
2023-04-12T22:47:44.120Z,94535.72
2023-04-12T22:50:12.812Z,94538.88
2023-04-12T22:52:41.921Z,94533.69
2023-04-12T22:55:12.764Z,94540.00
2023-04-12T22:57:42.473Z,94538.88
2023-04-12T23:00:15.675Z,94533.22
2023-04-12T23:02:44.159Z,94525.97
2023-04-12T23:05:12.721Z,94530.19
2023-04-12T23:07:41.269Z,94533.47
2023-04-12T23:10:10.984Z,94520.69
2023-04-12T23:12:38.959Z,94520.31
2023-04-12T23:15:09.971Z,94531.19
2023-04-12T23:17:38.002Z,94535.28
2023-04-12T23:20:10.024Z,94530.53
2023-04-12T23:22:57.490Z,94531.00
2023-04-12T23:25:29.217Z,94536.88
2023-04-12T23:27:57.440Z,94525.09
2023-04-12T23:30:29.813Z,94529.41
2023-04-12T23:32:58.335Z,94533.25
2023-04-12T23:35:26.327Z,94530.88
2023-04-12T23:37:54.464Z,94519.22
2023-04-12T23:40:22.393Z,94523.28
2023-04-12T23:42:50.807Z,94521.47
2023-04-12T23:45:18.874Z,94529.00
2023-04-12T23:47:48.234Z,94525.91
2023-04-12T23:50:16.474Z,94519.53
2023-04-12T23:52:44.410Z,94520.31
2023-04-12T23:55:12.324Z,94527.22
2023-04-12T23:57:40.204Z,94517.19
